createdAt,value
2023-05-20T00:01:54.389Z,56.52
2023-05-20T00:04:23.802Z,56.53
2023-05-20T00:06:51.759Z,56.90
2023-05-20T00:09:19.786Z,56.73
2023-05-20T00:11:47.891Z,56.53
2023-05-20T00:14:15.843Z,57.39
2023-05-20T00:16:44.277Z,57.91
2023-05-20T00:19:12.263Z,57.76
2023-05-20T00:21:41.557Z,57.53
2023-05-20T00:24:09.490Z,56.91
2023-05-20T00:26:37.391Z,57.14
2023-05-20T00:29:05.404Z,57.83
2023-05-20T00:31:33.509Z,57.78
2023-05-20T00:34:01.584Z,57.83
2023-05-20T00:36:29.568Z,58.01
2023-05-20T00:38:58.872Z,58.03
2023-05-20T00:41:26.861Z,58.35
2023-05-20T00:43:55.643Z,58.31
2023-05-20T00:46:25.308Z,59.58
2023-05-20T00:48:53.766Z,59.30
2023-05-20T00:51:22.582Z,59.45
2023-05-20T00:53:51.523Z,60.35
2023-05-20T00:56:22.096Z,61.27
2023-05-20T00:58:50.451Z,60.64
2023-05-20T01:01:18.332Z,61.14
2023-05-20T01:03:46.379Z,61.17
2023-05-20T01:06:14.295Z,61.45
2023-05-20T01:08:42.482Z,62.02
2023-05-20T01:11:16.319Z,62.47
2023-05-20T01:13:48.793Z,63.25
2023-05-20T01:16:19.534Z,62.89
2023-05-20T01:18:49.391Z,63.82
2023-05-20T01:21:18.634Z,63.01
2023-05-20T01:26:29.793Z,62.62
2023-05-20T01:28:58.113Z,61.95
2023-05-20T01:31:30.881Z,63.26
2023-05-20T01:33:59.658Z,62.62
2023-05-20T01:36:30.015Z,63.16
2023-05-20T01:38:59.913Z,62.54
2023-05-20T01:41:30.188Z,63.09
2023-05-20T01:43:58.445Z,63.36
2023-05-20T01:46:26.481Z,64.36
2023-05-20T01:48:54.519Z,63.63
2023-05-20T01:51:22.406Z,63.80
2023-05-20T01:53:50.558Z,63.20
2023-05-20T01:56:19.991Z,64.02
2023-05-20T01:58:47.982Z,64.28
2023-05-20T02:01:16.148Z,64.05
2023-05-20T02:03:45.030Z,64.60
2023-05-20T02:06:13.052Z,65.00
2023-05-20T02:08:40.987Z,64.55
2023-05-20T02:11:08.988Z,64.62
2023-05-20T02:13:40.258Z,64.57
2023-05-20T02:16:08.604Z,65.16
2023-05-20T02:18:36.556Z,64.63
2023-05-20T02:21:05.109Z,64.41
2023-05-20T02:23:33.149Z,65.64
2023-05-20T02:26:01.199Z,64.90
2023-05-20T02:28:29.523Z,64.71
2023-05-20T02:30:58.788Z,64.32
2023-05-20T02:33:29.138Z,64.76
2023-05-20T02:35:57.742Z,64.26
2023-05-20T02:38:26.579Z,64.61
2023-05-20T02:40:54.721Z,65.06
2023-05-20T02:43:22.798Z,65.22
2023-05-20T02:45:50.774Z,65.24
2023-05-20T02:48:20.054Z,65.46
2023-05-20T02:50:49.147Z,64.96
2023-05-20T02:53:17.112Z,65.25
2023-05-20T02:55:47.344Z,65.15
2023-05-20T02:58:15.523Z,64.84
2023-05-20T03:00:43.511Z,64.65
2023-05-20T03:03:13.609Z,64.53
2023-05-20T03:05:46.086Z,64.76
2023-05-20T03:08:15.060Z,66.05
2023-05-20T03:10:43.084Z,64.97
2023-05-20T03:13:11.530Z,64.01
2023-05-20T03:15:39.886Z,64.62
2023-05-20T03:18:08.674Z,65.03
2023-05-20T03:20:38.330Z,64.39
2023-05-20T03:23:09.282Z,64.67
2023-05-20T03:25:38.709Z,65.24
2023-05-20T03:28:06.927Z,66.09
2023-05-20T03:30:37.844Z,66.21
2023-05-20T03:33:06.415Z,65.92
2023-05-20T03:35:34.965Z,65.31
2023-05-20T03:38:03.244Z,65.72
2023-05-20T03:40:33.424Z,65.66
2023-05-20T03:43:01.451Z,65.17
2023-05-20T03:45:30.588Z,65.00
2023-05-20T03:48:06.159Z,65.93
2023-05-20T03:50:35.981Z,65.61
2023-05-20T03:53:04.204Z,65.03
2023-05-20T03:55:40.049Z,64.94
2023-05-20T03:58:08.620Z,64.38
2023-05-20T04:00:37.051Z,64.76
2023-05-20T04:03:05.913Z,65.00
2023-05-20T04:05:34.185Z,64.79
2023-05-20T04:08:05.034Z,64.51
2023-05-20T04:10:34.071Z,64.55
2023-05-20T04:13:03.302Z,63.86
2023-05-20T04:15:31.331Z,65.20
2023-05-20T04:18:01.383Z,64.81
2023-05-20T04:20:29.651Z,64.24
2023-05-20T04:22:59.240Z,65.31
2023-05-20T04:25:27.500Z,65.15
2023-05-20T04:27:57.730Z,64.51
2023-05-20T04:30:27.518Z,65.59
2023-05-20T04:32:55.941Z,65.37
2023-05-20T04:35:26.201Z,64.79
2023-05-20T04:37:56.277Z,64.45
2023-05-20T04:40:24.534Z,65.00
2023-05-20T04:42:53.714Z,65.28
2023-05-20T04:45:23.330Z,65.33
2023-05-20T04:47:53.442Z,65.70
2023-05-20T04:50:22.102Z,65.93
2023-05-20T04:52:50.708Z,65.16
2023-05-20T04:55:19.780Z,65.41
2023-05-20T04:57:47.786Z,65.74
2023-05-20T05:00:16.297Z,65.88
2023-05-20T05:02:44.217Z,66.16
2023-05-20T05:05:13.673Z,66.59
2023-05-20T05:07:41.592Z,66.53
2023-05-20T05:10:10.237Z,66.79
2023-05-20T05:12:38.180Z,65.57
2023-05-20T05:15:07.146Z,66.54
2023-05-20T05:17:35.187Z,66.23
2023-05-20T05:20:03.462Z,65.76
2023-05-20T05:22:36.920Z,66.21
2023-05-20T05:25:05.037Z,65.81
2023-05-20T05:27:33.019Z,65.87
2023-05-20T05:30:01.886Z,65.99
2023-05-20T05:32:30.414Z,65.52
2023-05-20T05:34:58.539Z,66.64
2023-05-20T05:37:27.007Z,66.40
2023-05-20T05:39:56.580Z,66.63
2023-05-20T05:42:24.990Z,66.16
2023-05-20T05:44:53.620Z,66.24
2023-05-20T05:47:23.045Z,66.49
2023-05-20T05:49:51.862Z,65.91
2023-05-20T05:52:19.761Z,66.89
2023-05-20T05:54:47.699Z,66.22
2023-05-20T05:57:17.119Z,66.72
2023-05-20T05:59:45.232Z,66.84
2023-05-20T06:02:14.618Z,66.93
2023-05-20T06:04:43.116Z,66.51
2023-05-20T06:07:12.385Z,66.71
2023-05-20T06:09:40.577Z,67.88
2023-05-20T06:12:09.224Z,66.63
2023-05-20T06:14:38.852Z,67.27
2023-05-20T06:17:07.235Z,67.36
2023-05-20T06:19:35.692Z,67.07
2023-05-20T06:22:04.113Z,68.23
2023-05-20T06:24:34.630Z,67.48
2023-05-20T06:27:04.098Z,66.75
2023-05-20T06:29:32.132Z,66.61
2023-05-20T06:32:02.473Z,66.89
2023-05-20T06:34:30.836Z,66.81
2023-05-20T06:36:58.750Z,66.88
2023-05-20T06:39:26.848Z,66.38
2023-05-20T06:41:55.286Z,67.63
2023-05-20T06:44:30.551Z,66.57
2023-05-20T06:47:19.087Z,66.80
2023-05-20T06:49:49.224Z,66.42
2023-05-20T06:52:17.381Z,66.71
2023-05-20T06:54:47.899Z,67.21
2023-05-20T06:57:16.281Z,67.08
2023-05-20T06:59:44.259Z,67.14
2023-05-20T07:02:12.484Z,65.74
2023-05-20T07:04:42.400Z,65.92
2023-05-20T07:07:10.476Z,66.82
2023-05-20T07:09:39.177Z,65.42
2023-05-20T07:12:09.065Z,65.90
2023-05-20T07:14:37.524Z,65.45
2023-05-20T07:17:07.113Z,65.03
2023-05-20T07:19:35.348Z,65.69
2023-05-20T07:22:04.905Z,66.32
2023-05-20T07:24:42.402Z,65.43
2023-05-20T07:27:11.512Z,66.32
2023-05-20T07:29:39.905Z,67.11
2023-05-20T07:32:10.017Z,65.52
2023-05-20T07:34:38.968Z,66.01
2023-05-20T07:37:10.074Z,66.14
2023-05-20T07:39:38.758Z,63.57
2023-05-20T07:42:08.146Z,64.38
2023-05-20T07:44:41.158Z,62.97
2023-05-20T07:47:09.428Z,63.25
2023-05-20T07:49:37.601Z,62.74
2023-05-20T07:52:06.346Z,62.18
2023-05-20T07:54:36.610Z,62.23
2023-05-20T07:57:04.704Z,61.65
2023-05-20T07:59:33.023Z,62.23
2023-05-20T08:02:01.124Z,61.08
2023-05-20T08:04:30.166Z,61.38
2023-05-20T08:06:58.916Z,61.45
2023-05-20T08:09:43.894Z,60.96
2023-05-20T08:12:12.130Z,60.18
2023-05-20T08:14:41.785Z,60.95
2023-05-20T08:17:09.819Z,61.46
2023-05-20T08:19:38.426Z,60.99
2023-05-20T08:22:07.949Z,59.96
2023-05-20T08:24:36.384Z,60.95
2023-05-20T08:27:06.445Z,61.09
2023-05-20T08:29:34.580Z,60.55
2023-05-20T08:32:03.034Z,59.74
2023-05-20T08:34:30.990Z,59.61
2023-05-20T08:36:58.853Z,60.01
2023-05-20T08:39:27.414Z,61.89
2023-05-20T08:41:58.880Z,60.04
2023-05-20T08:44:29.403Z,59.31
2023-05-20T08:46:58.903Z,58.61
2023-05-20T08:49:27.294Z,58.02
2023-05-20T08:51:55.423Z,59.06
2023-05-20T08:54:26.680Z,59.94
2023-05-20T08:56:55.931Z,58.79
2023-05-20T08:59:24.058Z,58.35
2023-05-20T09:01:53.404Z,58.67
2023-05-20T09:04:21.498Z,59.25
2023-05-20T09:06:52.087Z,60.03
2023-05-20T09:09:20.137Z,59.61
2023-05-20T09:11:48.213Z,60.58
2023-05-20T09:14:16.180Z,59.92
2023-05-20T09:16:44.271Z,59.93
2023-05-20T09:19:13.696Z,59.88
2023-05-20T09:21:43.027Z,59.43
2023-05-20T09:24:11.048Z,59.63
2023-05-20T09:26:38.989Z,59.94
2023-05-20T09:29:08.363Z,59.89
2023-05-20T09:31:39.083Z,59.35
2023-05-20T09:34:08.062Z,60.35
2023-05-20T09:36:37.520Z,60.28
2023-05-20T09:39:06.820Z,59.08
2023-05-20T09:41:39.618Z,58.41
2023-05-20T09:44:07.788Z,58.97
2023-05-20T09:46:37.632Z,58.62
2023-05-20T09:49:07.916Z,58.17
2023-05-20T09:51:37.433Z,59.24
2023-05-20T09:54:08.464Z,59.07
2023-05-20T09:56:38.238Z,59.61
2023-05-20T09:59:06.867Z,58.22
2023-05-20T10:01:34.921Z,56.59
2023-05-20T10:04:05.206Z,56.86
2023-05-20T10:06:57.367Z,56.78
2023-05-20T10:09:38.835Z,57.35
2023-05-20T10:12:19.511Z,57.90
2023-05-20T10:15:01.139Z,58.83
2023-05-20T10:17:37.465Z,58.05
2023-05-20T10:20:11.830Z,58.84
2023-05-20T10:22:41.450Z,59.05
2023-05-20T10:25:26.666Z,57.44
2023-05-20T10:28:07.807Z,57.54
2023-05-20T10:30:36.672Z,57.99
2023-05-20T10:33:07.077Z,57.68
2023-05-20T10:35:35.355Z,57.95
2023-05-20T10:38:12.543Z,58.09
2023-05-20T10:40:41.245Z,56.42
2023-05-20T10:43:13.658Z,54.71
2023-05-20T10:45:51.851Z,54.72
2023-05-20T10:48:25.556Z,53.81
2023-05-20T10:50:58.000Z,52.19
2023-05-20T10:53:33.682Z,51.11
2023-05-20T10:56:02.718Z,51.79
2023-05-20T10:58:38.403Z,52.23
2023-05-20T11:01:06.575Z,52.54
2023-05-20T11:03:36.318Z,53.51
2023-05-20T11:06:12.625Z,53.98
2023-05-20T11:08:43.984Z,54.34
2023-05-20T11:11:12.399Z,55.30
2023-05-20T11:13:40.667Z,52.94
2023-05-20T11:16:08.800Z,52.59
2023-05-20T11:18:36.884Z,54.29
2023-05-20T11:21:05.098Z,53.59
2023-05-20T11:23:33.617Z,53.16
2023-05-20T11:26:03.560Z,51.18
2023-05-20T11:28:33.267Z,49.33
2023-05-20T11:31:01.511Z,47.74
2023-05-20T11:33:32.461Z,49.18
2023-05-20T11:36:00.463Z,49.94
2023-05-20T11:38:29.175Z,50.07
2023-05-20T11:40:57.560Z,51.75
2023-05-20T11:43:27.433Z,50.23
2023-05-20T11:45:57.631Z,48.60
2023-05-20T11:48:26.609Z,49.50
2023-05-20T11:50:56.836Z,49.96
2023-05-20T11:53:30.849Z,49.01
2023-05-20T11:56:00.176Z,46.52
2023-05-20T11:58:31.343Z,46.89
2023-05-20T12:01:09.626Z,47.82
2023-05-20T12:03:47.961Z,49.04
2023-05-20T12:06:16.132Z,48.50
2023-05-20T12:08:45.314Z,48.61
2023-05-20T12:11:13.380Z,49.37
2023-05-20T12:13:42.796Z,47.64
2023-05-20T12:16:11.274Z,48.72
2023-05-20T12:18:39.229Z,49.52
2023-05-20T12:21:07.300Z,49.57
2023-05-20T12:23:35.206Z,48.11
2023-05-20T12:26:03.259Z,48.60
2023-05-20T12:28:32.154Z,48.97
2023-05-20T12:31:01.597Z,48.77
2023-05-20T12:33:29.580Z,48.97
2023-05-20T12:35:57.860Z,48.80
2023-05-20T12:38:28.273Z,50.29
2023-05-20T12:40:58.764Z,49.66
2023-05-20T12:43:26.764Z,49.18
2023-05-20T12:45:56.030Z,48.63
2023-05-20T12:48:25.564Z,48.78
2023-05-20T12:50:53.750Z,48.71
2023-05-20T12:53:22.430Z,49.56
2023-05-20T12:55:50.355Z,49.34
2023-05-20T12:58:26.109Z,48.41
2023-05-20T13:01:02.357Z,47.69
2023-05-20T13:03:33.846Z,47.99
2023-05-20T13:06:01.820Z,47.85
2023-05-20T13:08:34.758Z,48.99
2023-05-20T13:11:02.623Z,49.48
2023-05-20T13:13:31.385Z,49.80
2023-05-20T13:15:59.456Z,50.17
2023-05-20T13:18:27.417Z,50.10
2023-05-20T13:20:57.463Z,49.97
2023-05-20T13:23:25.398Z,48.60
2023-05-20T13:25:53.354Z,50.26
2023-05-20T13:28:22.062Z,50.21
2023-05-20T13:30:49.958Z,50.36
2023-05-20T13:33:18.225Z,49.75
2023-05-20T13:35:46.159Z,49.08
2023-05-20T13:38:15.469Z,49.88
2023-05-20T13:40:43.525Z,49.33
2023-05-20T13:43:11.578Z,48.44
2023-05-20T13:45:39.827Z,49.48
2023-05-20T13:48:07.985Z,47.90
2023-05-20T13:50:36.138Z,48.40
2023-05-20T13:53:04.707Z,48.17
2023-05-20T13:55:33.955Z,49.23
2023-05-20T13:58:01.845Z,48.59
2023-05-20T14:00:29.777Z,49.41
2023-05-20T14:02:57.703Z,47.83
2023-05-20T14:05:25.664Z,47.78
2023-05-20T14:07:53.535Z,49.09
2023-05-20T14:10:21.556Z,48.00
2023-05-20T14:12:50.866Z,48.78
2023-05-20T14:15:18.756Z,48.85
2023-05-20T14:17:46.657Z,49.92
2023-05-20T14:20:14.818Z,49.62
2023-05-20T14:22:42.845Z,49.41
2023-05-20T14:25:10.955Z,49.12
2023-05-20T14:27:38.841Z,48.30
2023-05-20T14:30:09.782Z,48.16
2023-05-20T14:32:38.019Z,49.31
2023-05-20T14:35:06.836Z,49.29
2023-05-20T14:37:34.738Z,51.05
2023-05-20T14:40:03.392Z,49.29
2023-05-20T14:42:31.261Z,49.22
2023-05-20T14:44:59.213Z,49.45
2023-05-20T14:47:28.591Z,48.98
2023-05-20T14:49:57.924Z,49.49
2023-05-20T14:52:25.942Z,48.67
2023-05-20T14:54:53.962Z,48.98
2023-05-20T14:57:21.999Z,49.13
2023-05-20T14:59:52.468Z,49.58
2023-05-20T15:02:20.450Z,48.88
2023-05-20T15:04:50.412Z,49.35
2023-05-20T15:07:18.327Z,48.85
2023-05-20T15:09:46.314Z,48.31
2023-05-20T15:12:14.191Z,48.86
2023-05-20T15:14:42.050Z,49.27
2023-05-20T15:17:09.991Z,48.85
2023-05-20T15:19:41.264Z,49.27
2023-05-20T15:22:10.900Z,49.28
2023-05-20T15:24:38.804Z,49.93
2023-05-20T15:27:06.963Z,48.90
2023-05-20T15:29:35.057Z,49.80
2023-05-20T15:32:02.945Z,48.88
2023-05-20T15:34:30.840Z,49.06
2023-05-20T15:36:58.729Z,49.76
2023-05-20T15:39:28.352Z,48.59
2023-05-20T15:41:56.311Z,48.89
2023-05-20T15:44:24.156Z,49.51
2023-05-20T15:46:52.414Z,49.50
2023-05-20T15:49:20.503Z,49.55
2023-05-20T15:52:11.851Z,49.89
2023-05-20T15:54:38.042Z,50.14
2023-05-20T15:57:06.694Z,50.10
2023-05-20T15:59:34.790Z,49.81
2023-05-20T16:02:02.958Z,50.07
2023-05-20T16:04:31.198Z,49.78
2023-05-20T16:06:59.324Z,49.19
2023-05-20T16:09:27.361Z,50.77
2023-05-20T16:11:57.177Z,51.09
2023-05-20T16:14:25.212Z,52.29
2023-05-20T16:16:53.259Z,51.75
2023-05-20T16:19:21.411Z,50.49
2023-05-20T16:21:49.472Z,50.70
2023-05-20T16:24:17.498Z,52.40
2023-05-20T16:26:45.623Z,51.83
2023-05-20T16:29:16.501Z,51.53
2023-05-20T16:31:46.604Z,51.95
2023-05-20T16:34:16.397Z,51.86
2023-05-20T16:36:46.311Z,52.31
2023-05-20T16:39:14.864Z,52.72
2023-05-20T16:41:43.259Z,51.28
2023-05-20T16:44:11.537Z,52.31
2023-05-20T16:46:40.972Z,51.47
2023-05-20T16:49:08.967Z,52.88
2023-05-20T16:51:37.078Z,53.02
2023-05-20T16:54:05.217Z,52.56
2023-05-20T16:56:35.301Z,52.54
2023-05-20T16:59:03.578Z,52.89
2023-05-20T17:01:32.068Z,52.34
2023-05-20T17:04:01.489Z,52.15
2023-05-20T17:06:33.968Z,52.20
2023-05-20T17:09:03.026Z,51.54
2023-05-20T17:11:31.001Z,51.37
2023-05-20T17:13:58.881Z,51.81
2023-05-20T17:16:26.851Z,51.63
2023-05-20T17:18:54.825Z,52.37
2023-05-20T17:21:24.180Z,51.95
2023-05-20T17:23:52.137Z,51.68
2023-05-20T17:26:22.236Z,51.65
2023-05-20T17:28:50.107Z,51.08
2023-05-20T17:31:18.013Z,51.54
2023-05-20T17:33:46.279Z,51.45
2023-05-20T17:36:16.161Z,51.39
2023-05-20T17:38:45.501Z,51.22
2023-05-20T17:41:13.423Z,51.22
2023-05-20T17:43:41.318Z,51.47
2023-05-20T17:46:09.195Z,51.63
2023-05-20T17:48:37.099Z,51.96
2023-05-20T17:51:05.658Z,51.48
2023-05-20T17:53:33.552Z,52.33
2023-05-20T17:56:02.802Z,51.46
2023-05-20T17:58:31.494Z,51.89
2023-05-20T18:00:59.401Z,51.93
2023-05-20T18:03:27.805Z,51.82
2023-05-20T18:05:56.282Z,52.12
2023-05-20T18:08:25.319Z,51.79
2023-05-20T18:10:53.567Z,51.69
2023-05-20T18:13:22.829Z,53.01
2023-05-20T18:15:51.082Z,51.99
2023-05-20T18:18:19.113Z,52.60
2023-05-20T18:20:47.189Z,51.99
2023-05-20T18:23:15.357Z,52.08
2023-05-20T18:25:43.644Z,53.10
2023-05-20T18:28:13.169Z,53.25
2023-05-20T18:30:42.491Z,52.19
2023-05-20T18:33:10.845Z,52.38
2023-05-20T18:35:39.312Z,52.13
2023-05-20T18:38:07.266Z,52.15
2023-05-20T18:40:35.354Z,52.40
2023-05-20T18:43:03.306Z,52.60
2023-05-20T18:45:31.371Z,52.17
2023-05-20T18:48:00.764Z,52.89
2023-05-20T18:50:28.825Z,52.59
2023-05-20T18:52:56.689Z,53.86
2023-05-20T18:55:24.932Z,53.27
2023-05-20T18:57:52.998Z,52.93
2023-05-20T19:00:21.317Z,53.91
2023-05-20T19:02:49.244Z,53.90
2023-05-20T19:05:19.691Z,53.16
2023-05-20T19:07:47.673Z,53.71
2023-05-20T19:10:16.195Z,53.64
2023-05-20T19:12:44.675Z,54.30
2023-05-20T19:15:12.847Z,54.53
2023-05-20T19:17:40.812Z,54.51
2023-05-20T19:20:10.490Z,55.07
2023-05-20T19:22:39.785Z,54.57
2023-05-20T19:25:08.678Z,55.13
2023-05-20T19:27:36.709Z,55.71
2023-05-20T19:30:05.431Z,55.69
2023-05-20T19:32:33.367Z,55.31
2023-05-20T19:35:01.261Z,55.97
2023-05-20T19:37:29.109Z,55.58
2023-05-20T19:39:58.425Z,56.11
2023-05-20T19:42:26.364Z,56.46
2023-05-20T19:44:55.009Z,56.93
2023-05-20T19:47:23.038Z,55.94
2023-05-20T19:49:51.041Z,56.68
2023-05-20T19:52:19.949Z,56.45
2023-05-20T19:54:48.564Z,56.04
2023-05-20T19:57:17.857Z,56.53
2023-05-20T19:59:45.794Z,56.90
2023-05-20T20:02:14.832Z,56.85
2023-05-20T20:04:43.087Z,57.44
2023-05-20T20:07:11.045Z,57.67
2023-05-20T20:09:38.953Z,57.50
2023-05-20T20:12:07.923Z,57.09
2023-05-20T20:14:38.026Z,57.06
2023-05-20T20:17:06.226Z,57.70
2023-05-20T20:19:34.205Z,56.81
2023-05-20T20:22:02.149Z,57.46
2023-05-20T20:24:30.053Z,57.42
2023-05-20T20:26:58.364Z,57.97
2023-05-20T20:29:26.743Z,57.73
2023-05-20T20:31:56.582Z,57.63
2023-05-20T20:34:24.482Z,57.85
2023-05-20T20:36:53.156Z,57.77
2023-05-20T20:39:22.567Z,58.37
2023-05-20T20:41:51.431Z,58.30
2023-05-20T20:44:22.414Z,58.37
2023-05-20T20:46:51.506Z,59.02
2023-05-20T20:49:21.992Z,58.56
2023-05-20T20:51:51.362Z,58.53
2023-05-20T20:54:19.384Z,58.21
2023-05-20T20:56:47.345Z,59.19
2023-05-20T20:59:15.990Z,58.56
2023-05-20T21:01:45.132Z,58.41
2023-05-20T21:04:14.001Z,58.67
2023-05-20T21:06:45.970Z,59.98
2023-05-20T21:09:14.094Z,58.96
2023-05-20T21:11:42.966Z,58.34
2023-05-20T21:14:11.164Z,59.27
2023-05-20T21:16:39.233Z,59.37
2023-05-20T21:19:07.222Z,59.45
2023-05-20T21:21:35.218Z,59.50
2023-05-20T21:24:04.656Z,59.15
2023-05-20T21:26:32.536Z,60.71
2023-05-20T21:29:00.507Z,60.34
2023-05-20T21:31:28.580Z,60.09
2023-05-20T21:33:56.547Z,60.54
2023-05-20T21:36:24.438Z,60.06
2023-05-20T21:38:52.415Z,59.85
2023-05-20T21:41:23.576Z,60.76
2023-05-20T21:43:51.662Z,60.91
2023-05-20T21:46:19.607Z,61.26
2023-05-20T21:48:47.560Z,60.77
2023-05-20T21:51:15.590Z,61.43
2023-05-20T21:53:43.634Z,61.41
2023-05-20T21:56:11.533Z,61.90
2023-05-20T21:58:41.898Z,61.47
2023-05-20T22:01:10.550Z,61.63
2023-05-20T22:03:39.950Z,61.40
2023-05-20T22:06:08.301Z,61.44
2023-05-20T22:08:36.305Z,61.72
2023-05-20T22:11:07.398Z,61.60
2023-05-20T22:13:41.244Z,61.93
2023-05-20T22:16:11.279Z,62.41
2023-05-20T22:18:39.675Z,62.65
2023-05-20T22:21:07.656Z,63.27
2023-05-20T22:23:35.599Z,62.97
2023-05-20T22:26:04.921Z,63.12
2023-05-20T22:28:32.972Z,63.57
2023-05-20T22:31:01.399Z,63.19
2023-05-20T22:33:30.792Z,63.14
2023-05-20T22:35:59.522Z,62.91
2023-05-20T22:38:29.288Z,63.06
2023-05-20T22:40:57.301Z,63.08
2023-05-20T22:43:26.335Z,63.33
2023-05-20T22:45:54.296Z,63.45
2023-05-20T22:48:23.045Z,63.80
2023-05-20T22:50:54.026Z,63.55
2023-05-20T22:53:21.887Z,63.67
2023-05-20T22:55:49.937Z,63.77
2023-05-20T22:58:17.792Z,63.99
2023-05-20T23:00:46.011Z,63.63
2023-05-20T23:03:14.100Z,65.35
2023-05-20T23:05:42.002Z,65.11
2023-05-20T23:08:11.280Z,64.41
2023-05-20T23:10:39.465Z,64.52
2023-05-20T23:13:07.346Z,65.90
2023-05-20T23:15:35.361Z,65.46
2023-05-20T23:18:03.631Z,65.11
2023-05-20T23:20:31.524Z,65.70
2023-05-20T23:23:05.569Z,65.55
2023-05-20T23:25:40.149Z,65.99
2023-05-20T23:28:08.139Z,66.08
2023-05-20T23:30:36.622Z,65.07
2023-05-20T23:33:04.728Z,65.94
2023-05-20T23:35:32.771Z,65.82
2023-05-20T23:38:00.764Z,65.76
2023-05-20T23:40:28.696Z,66.23
2023-05-20T23:42:57.910Z,65.86
2023-05-20T23:45:25.978Z,65.93
2023-05-20T23:47:55.515Z,65.92
2023-05-20T23:50:23.717Z,66.25
2023-05-20T23:52:52.215Z,66.08
2023-05-20T23:55:20.159Z,66.04
2023-05-20T23:57:48.083Z,66.77
